Time;durP1;ratioP1;P1;durP2;ratioP2;P2;SDS_P1;SDS_P2;PMS_P1;PMS_P2;Temp;Humidity;BMP_temperature;BMP_pressure;BME280_temperature;BME280_humidity;BME280_pressure;Samples;Min_cycle;Max_cycle;Signal;HPM_P1;HPM_P2
2023/10/13 00:02:05;;;;;;;10.15;3.78;;;17.10;99.90;;;;;;5014854;28;20160;-87
2023/10/13 00:04:37;;;;;;;9.18;3.65;;;17.00;99.90;;;;;;5016505;28;20083;-86
2023/10/13 00:07:04;;;;;;;7.78;3.03;;;17.10;99.90;;;;;;5015100;28;20030;-86
2023/10/13 00:09:35;;;;;;;8.23;3.03;;;17.00;99.90;;;;;;5015554;28;20136;-87
2023/10/13 00:12:15;;;;;;;8.27;3.08;;;17.00;99.90;;;;;;5015925;28;20029;-87
2023/10/13 00:14:41;;;;;;;10.02;3.28;;;17.00;99.90;;;;;;5014446;28;20130;-87
2023/10/13 00:17:07;;;;;;;10.18;3.08;;;17.00;99.90;;;;;;5014769;28;20044;-87
2023/10/13 00:19:45;;;;;;;9.38;3.08;;;17.00;99.90;;;;;;5017446;28;20075;-86
2023/10/13 00:22:19;;;;;;;9.07;3.78;;;16.90;99.90;;;;;;5018615;28;20022;-87
2023/10/13 00:24:45;;;;;;;8.75;3.00;;;16.90;99.90;;;;;;5016857;28;20060;-87
2023/10/13 00:27:30;;;;;;;5.80;2.92;;;16.90;99.90;;;;;;5018549;28;20030;-86
2023/10/13 00:30:23;;;;;;;6.88;2.45;;;16.90;99.90;;;;;;5017364;28;20037;-86
2023/10/13 00:32:56;;;;;;;7.03;3.05;;;16.90;99.90;;;;;;4998602;28;20033;-86
2023/10/13 00:35:35;;;;;;;8.40;2.83;;;16.90;99.90;;;;;;5017352;28;20473;-86
2023/10/13 00:38:12;;;;;;;6.93;2.72;;;16.90;99.90;;;;;;5016442;28;20091;-85
2023/10/13 00:45:57;;;;;;;12.48;3.47;;;17.00;99.90;;;;;;5017119;28;20158;-87
2023/10/13 00:48:34;;;;;;;7.43;3.15;;;16.90;99.90;;;;;;5017551;28;20420;-86
2023/10/13 00:51:03;;;;;;;8.15;3.17;;;17.00;99.90;;;;;;5017336;28;20085;-87
2023/10/13 00:53:33;;;;;;;11.23;3.58;;;17.00;99.90;;;;;;5016721;28;20029;-87
2023/10/13 00:56:06;;;;;;;8.27;3.33;;;17.00;99.90;;;;;;5016056;28;20085;-88
2023/10/13 00:58:35;;;;;;;7.65;2.83;;;17.00;99.90;;;;;;5016643;28;20017;-87
2023/10/13 01:01:18;;;;;;;8.60;3.58;;;17.00;99.90;;;;;;5018357;28;20044;-86
2023/10/13 01:04:04;;;;;;;9.90;3.75;;;16.90;99.90;;;;;;5018256;28;20045;-85
2023/10/13 01:06:30;;;;;;;8.38;2.92;;;17.00;99.90;;;;;;5019961;28;20025;-86
2023/10/13 01:09:18;;;;;;;8.82;3.20;;;16.90;99.90;;;;;;5016973;28;20535;-87
2023/10/13 01:11:52;;;;;;;11.15;3.72;;;16.80;99.90;;;;;;5017891;28;20147;-87
2023/10/13 01:14:18;;;;;;;5.93;3.00;;;16.80;99.90;;;;;;5015684;28;20044;-86
2023/10/13 01:16:45;;;;;;;5.68;3.03;;;16.70;99.90;;;;;;5018508;28;20056;-86
2023/10/13 01:19:12;;;;;;;14.32;4.07;;;16.70;99.90;;;;;;5016966;28;20033;-86
2023/10/13 01:21:42;;;;;;;10.70;3.92;;;16.60;99.90;;;;;;5018852;28;20063;-86
2023/10/13 01:24:08;;;;;;;6.57;2.90;;;16.50;99.90;;;;;;5017859;28;20115;-86
2023/10/13 01:26:39;;;;;;;7.35;3.25;;;16.50;99.90;;;;;;5023772;28;20026;-85
2023/10/13 01:29:12;;;;;;;7.25;2.88;;;16.40;99.90;;;;;;5027226;28;20032;-85
2023/10/13 01:31:45;;;;;;;11.00;2.90;;;16.40;99.90;;;;;;5023072;28;20068;-86
2023/10/13 01:34:19;;;;;;;11.27;3.30;;;16.30;99.90;;;;;;5023035;28;20025;-86
2023/10/13 01:36:45;;;;;;;8.55;3.33;;;16.30;99.90;;;;;;5026413;28;20052;-86
2023/10/13 01:39:16;;;;;;;5.88;3.08;;;16.20;99.90;;;;;;5023579;28;20062;-87
2023/10/13 01:41:42;;;;;;;8.55;3.20;;;16.20;99.90;;;;;;5032164;28;20055;-85
2023/10/13 01:44:11;;;;;;;7.03;2.92;;;16.10;99.90;;;;;;5036652;28;20057;-86
2023/10/13 01:46:37;;;;;;;5.80;3.33;;;16.10;99.90;;;;;;5039868;28;20068;-86
2023/10/13 01:49:03;;;;;;;9.52;3.22;;;16.00;99.90;;;;;;5017439;28;20026;-86
2023/10/13 01:51:28;;;;;;;6.70;3.10;;;16.00;99.90;;;;;;5016815;28;20046;-87
2023/10/13 01:53:57;;;;;;;8.38;3.08;;;16.00;99.90;;;;;;5016583;28;20029;-87
2023/10/13 01:56:24;;;;;;;10.27;3.92;;;15.90;99.90;;;;;;5016950;28;20033;-86
2023/10/13 01:58:50;;;;;;;6.85;3.30;;;15.90;99.90;;;;;;5015243;28;20583;-85
2023/10/13 02:01:26;;;;;;;7.78;3.22;;;15.90;99.90;;;;;;5016675;28;20083;-87
2023/10/13 02:04:06;;;;;;;8.43;3.38;;;15.90;99.90;;;;;;5015240;28;20048;-87
2023/10/13 02:06:34;;;;;;;10.27;3.92;;;15.90;99.90;;;;;;5017550;28;20049;-86
2023/10/13 02:09:13;;;;;;;9.80;3.67;;;15.80;99.90;;;;;;5019302;28;20041;-86
2023/10/13 02:11:40;;;;;;;12.05;3.58;;;15.80;99.90;;;;;;5020469;28;20060;-86
2023/10/13 02:14:06;;;;;;;12.15;4.25;;;15.80;99.90;;;;;;5019891;28;20049;-87
2023/10/13 02:16:31;;;;;;;9.82;3.30;;;15.70;99.90;;;;;;5018335;28;20169;-86
2023/10/13 02:19:03;;;;;;;7.80;3.45;;;15.70;99.90;;;;;;5019472;28;20026;-87
2023/10/13 02:21:31;;;;;;;7.57;2.97;;;15.70;99.90;;;;;;5018390;28;20044;-86
2023/10/13 02:24:00;;;;;;;8.52;3.00;;;15.60;99.90;;;;;;5018903;28;20025;-85
2023/10/13 02:26:38;;;;;;;6.97;2.75;;;15.60;99.90;;;;;;5017589;28;20037;-87
2023/10/13 02:29:07;;;;;;;9.88;3.88;;;15.60;99.90;;;;;;5017209;28;20030;-86
2023/10/13 02:31:35;;;;;;;8.18;3.08;;;15.60;99.90;;;;;;5016406;28;20038;-86
2023/10/13 02:34:06;;;;;;;7.22;3.17;;;15.50;99.90;;;;;;5017928;28;20026;-86
2023/10/13 02:36:46;;;;;;;10.60;3.45;;;15.50;99.90;;;;;;5018499;28;20436;-87
2023/10/13 02:39:13;;;;;;;6.80;2.88;;;15.40;99.90;;;;;;5017582;28;20026;-87
2023/10/13 02:41:40;;;;;;;6.38;3.33;;;15.30;99.90;;;;;;5018384;28;20033;-87
2023/10/13 02:44:06;;;;;;;14.32;3.83;;;15.30;99.90;;;;;;5017978;28;20341;-86
2023/10/13 02:46:35;;;;;;;8.27;3.17;;;15.20;99.90;;;;;;5019158;28;20053;-86
2023/10/13 02:49:09;;;;;;;6.00;3.15;;;15.10;99.90;;;;;;5018150;28;20018;-85
2023/10/13 02:51:35;;;;;;;6.78;2.83;;;15.10;99.90;;;;;;5020709;28;20037;-85
2023/10/13 02:54:11;;;;;;;7.80;3.17;;;15.00;99.90;;;;;;5017531;28;20028;-86
2023/10/13 02:56:56;;;;;;;7.47;3.20;;;14.90;99.90;;;;;;5019039;28;20037;-86
2023/10/13 02:59:38;;;;;;;9.50;2.72;;;14.90;99.90;;;;;;5018700;28;20034;-88
2023/10/13 03:02:17;;;;;;;9.57;3.47;;;14.80;99.90;;;;;;5019518;28;20037;-86
2023/10/13 03:04:47;;;;;;;6.88;2.80;;;14.70;99.90;;;;;;5017833;28;20014;-86
2023/10/13 03:07:15;;;;;;;7.25;3.20;;;14.70;99.90;;;;;;5016342;28;20025;-88
2023/10/13 03:09:50;;;;;;;10.88;2.97;;;14.70;99.90;;;;;;5025352;28;20025;-84
2023/10/13 03:12:16;;;;;;;5.95;2.78;;;14.60;99.90;;;;;;5018237;28;20038;-86
2023/10/13 03:14:47;;;;;;;6.93;2.85;;;14.60;99.90;;;;;;5017427;28;20029;-86
2023/10/13 03:17:18;;;;;;;8.65;3.03;;;14.50;99.90;;;;;;5005421;28;20042;-86
2023/10/13 03:19:50;;;;;;;6.97;3.20;;;14.40;99.90;;;;;;5021019;28;20396;-86
2023/10/13 03:22:16;;;;;;;7.70;3.22;;;14.40;99.90;;;;;;5020415;28;20132;-87
2023/10/13 03:24:48;;;;;;;10.07;3.20;;;14.30;99.90;;;;;;5018614;28;20068;-87
2023/10/13 03:27:17;;;;;;;5.95;3.22;;;14.20;99.90;;;;;;5017822;28;20173;-87
2023/10/13 03:29:44;;;;;;;8.95;2.75;;;14.20;99.90;;;;;;5020179;28;20025;-86
2023/10/13 03:32:15;;;;;;;7.90;2.88;;;14.20;99.90;;;;;;5017526;28;20038;-87
2023/10/13 03:37:39;;;;;;;9.18;3.38;;;14.10;99.90;;;;;;5019222;28;20101;-85
2023/10/13 03:40:33;;;;;;;8.57;3.38;;;14.10;99.90;;;;;;5018665;28;20036;-87
2023/10/13 03:43:04;;;;;;;7.18;3.35;;;14.00;99.90;;;;;;5017777;28;20100;-87
2023/10/13 03:45:38;;;;;;;10.43;3.25;;;14.00;99.90;;;;;;5016852;28;20052;-86
2023/10/13 03:48:21;;;;;;;9.25;3.83;;;13.90;99.90;;;;;;5017523;28;20808;-86
2023/10/13 03:50:48;;;;;;;11.23;4.05;;;13.90;99.90;;;;;;5017341;28;20124;-86
2023/10/13 03:53:14;;;;;;;7.03;3.50;;;13.90;99.90;;;;;;5016349;28;20037;-85
2023/10/13 03:55:41;;;;;;;9.23;3.22;;;13.80;99.90;;;;;;5015787;28;20025;-86
2023/10/13 03:58:10;;;;;;;6.47;2.80;;;13.80;99.90;;;;;;5018170;28;20029;-86
2023/10/13 04:00:36;;;;;;;9.73;3.50;;;13.80;99.90;;;;;;5017032;28;20033;-87
2023/10/13 04:03:09;;;;;;;9.27;3.30;;;13.70;99.90;;;;;;5016576;28;20046;-86
2023/10/13 04:05:45;;;;;;;10.27;3.75;;;13.70;99.90;;;;;;5017081;28;20037;-87
2023/10/13 04:08:47;;;;;;;8.25;3.40;;;13.70;99.90;;;;;;5017908;28;20037;-86
2023/10/13 04:15:14;;;;;;;10.57;3.30;;;13.60;99.90;;;;;;4978622;28;20049;-87
2023/10/13 04:17:14;;;;;;;7.57;3.47;;;13.50;99.90;;;;;;4979540;28;20050;-87
2023/10/13 04:25:35;;;;;;;7.03;3.53;;;13.40;99.90;;;;;;5016907;28;20028;-85
2023/10/13 04:36:16;;;;;;;7.68;2.97;;;13.30;99.90;;;;;;5020860;28;20021;-87
2023/10/13 04:41:24;;;;;;;9.15;3.03;;;13.30;99.90;;;;;;5037002;28;20025;-86
2023/10/13 04:43:56;;;;;;;12.80;3.45;;;13.20;99.90;;;;;;5036728;28;20026;-87
2023/10/13 04:46:39;;;;;;;14.27;4.05;;;13.20;99.90;;;;;;5017740;28;20106;-85
2023/10/13 04:49:10;;;;;;;11.32;4.03;;;13.20;99.90;;;;;;5018166;28;20029;-86
2023/10/13 04:51:58;;;;;;;8.63;3.13;;;13.20;99.90;;;;;;5024867;28;20037;-85
2023/10/13 04:54:26;;;;;;;14.73;4.65;;;13.20;99.90;;;;;;5027008;28;20097;-85
2023/10/13 04:59:37;;;;;;;;;;;13.10;99.90;;;;;;5015759;28;20049;-87
2023/10/13 05:46:35;;;;;;;6.90;3.17;;;13.00;99.90;;;;;;5027444;28;20052;-92
2023/10/13 06:29:54;;;;;;;8.68;3.25;;;14.10;99.90;;;;;;5008628;28;20670;-89
2023/10/13 06:32:25;;;;;;;6.95;3.10;;;14.10;99.90;;;;;;5011155;28;20065;-87
2023/10/13 06:37:50;;;;;;;10.60;2.92;;;14.30;99.90;;;;;;5010326;28;20203;-88
2023/10/13 06:43:12;;;;;;;11.13;3.33;;;14.40;99.90;;;;;;5015598;28;20036;-87
2023/10/13 06:45:38;;;;;;;9.52;2.75;;;14.50;99.90;;;;;;5014854;28;20034;-82
2023/10/13 06:48:05;;;;;;;9.75;2.80;;;14.60;99.90;;;;;;4994879;28;20049;-88
2023/10/13 06:50:39;;;;;;;11.85;3.40;;;14.70;99.90;;;;;;5013273;28;20059;-88
2023/10/13 06:53:05;;;;;;;8.70;2.67;;;14.80;99.90;;;;;;5011636;28;20092;-87
2023/10/13 06:55:35;;;;;;;9.43;2.67;;;14.90;99.90;;;;;;5017270;28;20022;-88
2023/10/13 06:58:01;;;;;;;16.75;3.17;;;15.00;99.90;;;;;;5016785;28;20030;-88
2023/10/13 07:00:34;;;;;;;15.65;3.80;;;15.10;99.90;;;;;;5016542;28;20030;-88
2023/10/13 07:03:07;;;;;;;6.25;3.00;;;15.20;99.90;;;;;;5015990;28;21394;-88
2023/10/13 07:05:39;;;;;;;10.40;2.85;;;15.20;99.90;;;;;;5015641;28;20174;-88
2023/10/13 07:08:06;;;;;;;8.73;3.13;;;15.20;99.90;;;;;;5020522;28;20145;-88
2023/10/13 07:10:44;;;;;;;7.20;2.70;;;15.30;99.90;;;;;;5021033;28;20053;-88
2023/10/13 07:13:10;;;;;;;6.85;2.90;;;15.40;99.90;;;;;;5016404;28;20037;-88
2023/10/13 07:15:44;;;;;;;9.27;2.83;;;15.50;99.90;;;;;;5014339;28;20493;-87
2023/10/13 07:18:12;;;;;;;12.13;3.15;;;15.60;99.90;;;;;;5016496;28;20436;-86
2023/10/13 07:20:43;;;;;;;8.68;3.30;;;15.80;99.90;;;;;;5016951;28;20132;-86
2023/10/13 07:23:11;;;;;;;9.43;3.13;;;15.90;99.90;;;;;;5017175;28;20122;-85
2023/10/13 07:25:38;;;;;;;6.57;3.00;;;16.00;99.90;;;;;;5015241;28;20026;-86
2023/10/13 07:28:07;;;;;;;9.35;3.08;;;16.20;99.90;;;;;;5016184;28;20033;-91
2023/10/13 07:30:47;;;;;;;8.35;3.38;;;16.40;99.90;;;;;;5016983;28;20025;-89
2023/10/13 07:33:14;;;;;;;8.75;3.10;;;16.50;99.90;;;;;;5020441;28;20114;-87
2023/10/13 07:35:39;;;;;;;10.25;2.80;;;16.60;99.90;;;;;;5021143;28;20025;-87
2023/10/13 07:38:07;;;;;;;9.82;2.72;;;16.80;99.90;;;;;;5029965;28;20021;-87
2023/10/13 07:43:03;;;;;;;7.20;2.70;;;17.20;99.90;;;;;;5047695;28;20025;-87
2023/10/13 07:45:40;;;;;;;15.10;2.85;;;17.30;99.90;;;;;;5031507;28;20044;-86
2023/10/13 07:48:19;;;;;;;13.38;3.40;;;17.40;99.90;;;;;;5018223;28;20017;-90
2023/10/13 07:51:18;;;;;;;12.50;3.00;;;17.50;99.90;;;;;;5016074;28;20025;-86
2023/10/13 07:53:48;;;;;;;8.35;3.33;;;17.70;99.90;;;;;;5017520;28;20034;-80
2023/10/13 07:56:17;;;;;;;13.63;3.10;;;17.90;99.90;;;;;;5017747;28;20442;-84
2023/10/13 07:58:52;;;;;;;7.20;2.47;;;18.00;99.90;;;;;;5018468;28;20026;-79
2023/10/13 08:01:21;;;;;;;;;;;18.20;99.90;;;;;;5016354;28;20030;-78
2023/10/13 08:03:49;;;;;;;7.78;2.90;;;18.40;99.90;;;;;;5018282;28;20379;-77
2023/10/13 08:08:43;;;;;;;10.75;2.70;;;18.80;99.90;;;;;;5017547;28;20765;-78
2023/10/13 08:11:24;;;;;;;9.80;2.90;;;18.90;99.90;;;;;;5016592;28;20030;-78
2023/10/13 08:13:54;;;;;;;11.13;3.10;;;19.10;99.90;;;;;;5015820;28;20386;-79
2023/10/13 08:16:23;;;;;;;6.03;2.50;;;19.30;99.90;;;;;;5013848;28;20030;-79
2023/10/13 08:18:50;;;;;;;11.35;2.80;;;19.40;99.90;;;;;;5021991;28;20040;-74
2023/10/13 08:21:17;;;;;;;10.65;3.00;;;19.70;99.90;;;;;;5017986;28;20566;-82
2023/10/13 08:24:06;;;;;;;9.30;3.10;;;19.80;99.90;;;;;;5013476;28;20025;-78
2023/10/13 08:34:39;;;;;;;6.72;2.85;;;20.60;99.90;;;;;;4996101;28;19913;-77
2023/10/13 08:37:28;;;;;;;10.15;2.80;;;20.80;99.90;;;;;;5010568;28;20036;-77
2023/10/13 08:39:58;;;;;;;10.80;3.67;;;20.80;99.90;;;;;;5012921;28;20056;-77
2023/10/13 08:48:12;;;;;;;6.90;2.67;;;21.40;99.90;;;;;;5011855;28;20136;-78
2023/10/13 08:58:59;;;;;;;8.88;3.00;;;22.10;99.90;;;;;;5013323;28;20036;-77
2023/10/13 09:01:14;;;;;;;14.05;3.30;;;22.20;99.90;;;;;;5014852;28;20100;-79
2023/10/13 09:03:42;;;;;;;6.18;2.70;;;22.40;99.90;;;;;;5015724;28;20033;-77
2023/10/13 09:06:14;;;;;;;10.55;4.10;;;22.50;99.90;;;;;;5016035;28;20038;-78
2023/10/13 09:11:26;;;;;;;13.90;3.25;;;22.80;99.90;;;;;;5013795;28;20177;-78
2023/10/13 09:13:52;;;;;;;16.40;3.85;;;23.00;99.90;;;;;;5011866;28;20059;-78
2023/10/13 09:16:50;;;;;;;8.57;2.80;;;23.20;99.90;;;;;;5012885;28;20030;-77
2023/10/13 09:19:06;;;;;;;13.93;2.83;;;23.20;99.90;;;;;;5012776;28;20053;-78
2023/10/13 09:24:21;;;;;;;9.88;3.50;;;23.50;99.90;;;;;;5015771;28;20030;-79
2023/10/13 09:26:53;;;;;;;14.20;3.20;;;23.50;99.90;;;;;;5014939;28;20030;-78
2023/10/13 09:29:19;;;;;;;9.88;2.95;;;23.70;99.60;;;;;;5013055;28;20033;-78
2023/10/13 09:31:59;;;;;;;11.65;2.65;;;23.90;99.60;;;;;;5012821;28;20038;-79
2023/10/13 09:34:29;;;;;;;9.18;3.05;;;24.00;99.10;;;;;;5014669;28;20026;-79
2023/10/13 09:36:58;;;;;;;9.27;3.00;;;24.20;98.20;;;;;;5016867;28;20033;-79
2023/10/13 09:39:46;;;;;;;7.97;3.08;;;24.20;98.40;;;;;;5016980;28;20029;-79
2023/10/13 09:42:12;;;;;;;8.63;2.72;;;24.20;98.40;;;;;;5014097;28;20026;-78
2023/10/13 09:44:40;;;;;;;10.98;2.58;;;24.20;98.40;;;;;;5014825;28;20025;-78
2023/10/13 09:47:16;;;;;;;8.95;2.50;;;24.20;98.80;;;;;;5016587;28;20030;-78
2023/10/13 09:49:44;;;;;;;12.07;3.03;;;24.50;97.80;;;;;;5016058;28;20030;-78
2023/10/13 09:52:19;;;;;;;9.52;2.60;;;24.60;98.10;;;;;;5015119;28;20117;-79
2023/10/13 09:55:13;;;;;;;9.05;2.72;;;24.80;97.90;;;;;;5015800;28;20039;-78
2023/10/13 09:57:45;;;;;;;9.07;2.70;;;24.80;98.10;;;;;;5020455;28;20036;-78
2023/10/13 10:03:14;;;;;;;9.15;2.30;;;25.00;96.70;;;;;;5015371;28;20057;-78
2023/10/13 10:05:49;;;;;;;12.15;2.85;;;25.10;96.60;;;;;;5013592;28;20492;-78
2023/10/13 10:08:31;;;;;;;12.38;2.70;;;25.30;96.30;;;;;;5013539;28;20068;-78
2023/10/13 10:11:18;;;;;;;11.98;2.42;;;25.40;95.60;;;;;;5015173;28;20120;-78
2023/10/13 10:13:59;;;;;;;8.05;2.72;;;25.40;96.10;;;;;;5014285;28;20468;-78
2023/10/13 10:16:37;;;;;;;11.23;2.80;;;25.60;94.60;;;;;;5012825;28;20089;-79
2023/10/13 10:19:03;;;;;;;7.22;2.50;;;25.70;93.60;;;;;;5015482;28;20017;-78
2023/10/13 10:21:37;;;;;;;8.57;2.78;;;25.70;94.10;;;;;;5016514;28;20029;-79
2023/10/13 10:24:29;;;;;;;6.43;2.55;;;26.00;93.30;;;;;;5016755;28;20026;-86
2023/10/13 10:26:56;;;;;;;18.05;3.13;;;26.00;93.20;;;;;;5015878;28;20038;-86
2023/10/13 10:29:21;;;;;;;10.20;2.53;;;26.00;93.10;;;;;;5020495;28;20032;-89
2023/10/13 10:31:47;;;;;;;9.00;2.70;;;26.20;92.30;;;;;;5018417;28;20496;-89
2023/10/13 10:34:21;;;;;;;12.93;3.10;;;26.20;93.50;;;;;;5023965;28;20026;-89
2023/10/13 10:36:54;;;;;;;9.70;2.70;;;26.30;91.40;;;;;;5029494;28;20037;-90
2023/10/13 10:39:21;;;;;;;10.07;2.78;;;26.30;91.40;;;;;;5037547;28;20025;-89
2023/10/13 10:41:53;;;;;;;8.95;2.65;;;26.20;92.20;;;;;;5038985;28;20034;-86
2023/10/13 10:44:34;;;;;;;10.25;2.47;;;26.20;92.20;;;;;;5022439;28;20053;-90
2023/10/13 10:47:31;;;;;;;9.00;2.50;;;26.30;91.70;;;;;;5019697;28;20030;-88
2023/10/13 10:50:06;;;;;;;9.18;2.55;;;26.50;91.30;;;;;;5019534;28;20026;-89
2023/10/13 10:52:37;;;;;;;9.80;2.88;;;26.70;91.80;;;;;;5018072;28;20057;-88
2023/10/13 10:55:13;;;;;;;10.68;2.88;;;26.70;91.30;;;;;;5018055;28;20053;-89
2023/10/13 10:57:42;;;;;;;10.45;2.67;;;27.00;90.80;;;;;;5022545;28;20056;-90
2023/10/13 11:00:25;;;;;;;11.48;2.97;;;26.90;91.40;;;;;;5025358;28;20831;-89
2023/10/13 11:02:55;;;;;;;11.65;3.45;;;27.00;91.60;;;;;;5020208;28;20061;-79
2023/10/13 11:05:21;;;;;;;11.45;2.50;;;27.20;91.10;;;;;;5015790;28;20037;-80
2023/10/13 11:07:50;;;;;;;11.93;2.85;;;27.30;90.60;;;;;;5013862;28;20396;-79
2023/10/13 11:10:50;;;;;;;9.82;2.40;;;27.40;91.20;;;;;;5015962;28;20048;-80
2023/10/13 11:13:13;;;;;;;13.32;3.25;;;27.50;90.60;;;;;;5013517;28;20056;-79
2023/10/13 11:15:45;;;;;;;10.55;3.03;;;27.40;89.00;;;;;;5015429;28;20036;-79
2023/10/13 11:18:16;;;;;;;12.57;2.90;;;27.40;88.50;;;;;;5014985;28;20030;-80
2023/10/13 11:20:44;;;;;;;10.48;2.78;;;27.80;88.60;;;;;;5017612;28;20414;-79
2023/10/13 11:23:15;;;;;;;7.68;2.35;;;27.70;89.20;;;;;;5017416;28;20049;-78
2023/10/13 11:25:44;;;;;;;9.98;3.05;;;27.80;89.50;;;;;;5018245;28;20108;-79
2023/10/13 11:28:19;;;;;;;11.55;3.08;;;28.00;84.70;;;;;;5018351;28;20033;-79
2023/10/13 11:30:49;;;;;;;9.98;2.50;;;28.00;87.20;;;;;;5018172;28;20033;-79
2023/10/13 11:33:23;;;;;;;10.88;3.00;;;28.20;84.40;;;;;;5015711;28;20137;-78
2023/10/13 11:35:49;;;;;;;10.23;2.35;;;28.20;84.10;;;;;;5021905;28;20029;-78
2023/10/13 11:38:24;;;;;;;6.70;2.08;;;28.20;79.90;;;;;;5016955;28;20030;-79
2023/10/13 11:43:35;;;;;;;12.13;2.75;;;28.50;80.20;;;;;;5016583;28;20053;-79
2023/10/13 11:48:41;;;;;;;14.95;3.38;;;28.80;80.00;;;;;;5016187;28;20117;-80
2023/10/13 11:51:31;;;;;;;12.02;3.17;;;28.90;79.30;;;;;;5017506;28;20161;-80
2023/10/13 11:53:58;;;;;;;7.93;2.63;;;28.80;80.20;;;;;;5016172;28;20029;-79
2023/10/13 11:56:24;;;;;;;9.98;2.55;;;28.70;77.30;;;;;;5018243;28;20147;-79
2023/10/13 11:58:51;;;;;;;11.80;2.72;;;28.50;78.70;;;;;;5018174;28;20140;-78
2023/10/13 12:01:20;;;;;;;10.20;2.72;;;28.80;77.10;;;;;;5017061;28;20392;-79
2023/10/13 12:09:18;;;;;;;17.20;3.55;;;28.80;76.90;;;;;;5016895;28;20136;-79
2023/10/13 12:11:50;;;;;;;9.77;2.17;;;28.70;76.90;;;;;;5017252;28;20103;-80
2023/10/13 12:14:17;;;;;;;6.55;2.42;;;28.50;77.50;;;;;;5014665;28;20140;-77
2023/10/13 12:16:48;;;;;;;13.57;2.85;;;28.40;78.60;;;;;;5014797;28;20087;-79
2023/10/13 12:19:16;;;;;;;9.80;2.67;;;28.30;79.80;;;;;;5013619;28;20464;-79
2023/10/13 12:21:48;;;;;;;14.77;3.13;;;28.50;78.10;;;;;;5016044;28;20021;-80
2023/10/13 12:24:30;;;;;;;11.52;3.10;;;28.60;76.80;;;;;;5015097;28;21048;-80
2023/10/13 12:26:57;;;;;;;10.02;2.42;;;28.60;75.00;;;;;;5015150;28;20057;-79
2023/10/13 12:29:29;;;;;;;10.50;2.90;;;28.60;76.00;;;;;;5014387;28;20029;-79
2023/10/13 12:32:09;;;;;;;9.85;2.95;;;28.80;74.90;;;;;;5014873;28;20044;-79
2023/10/13 12:51:21;;;;;;;7.70;2.55;;;28.60;75.80;;;;;;5012206;28;21545;-79
2023/10/13 12:53:51;;;;;;;10.30;3.22;;;28.70;76.50;;;;;;5013921;28;20030;-80
2023/10/13 12:56:18;;;;;;;10.40;3.05;;;28.90;74.30;;;;;;5014618;28;20030;-81
2023/10/13 12:58:52;;;;;;;10.73;2.85;;;28.80;74.90;;;;;;5014352;28;20041;-79
2023/10/13 13:01:22;;;;;;;15.75;3.40;;;28.80;74.80;;;;;;5015054;28;20057;-79
2023/10/13 13:03:55;;;;;;;14.40;2.65;;;28.70;75.10;;;;;;5012129;28;20044;-78
2023/10/13 13:06:26;;;;;;;11.68;3.45;;;28.70;73.90;;;;;;5014530;28;21411;-90
2023/10/13 13:08:56;;;;;;;7.50;2.58;;;28.60;75.20;;;;;;5011933;28;20038;-76
2023/10/13 13:11:22;;;;;;;12.05;2.40;;;28.50;72.50;;;;;;5011502;28;20049;-76
2023/10/13 13:13:48;;;;;;;10.05;2.55;;;28.40;75.10;;;;;;5019109;28;20036;-77
2023/10/13 13:16:14;;;;;;;12.65;3.13;;;28.40;74.50;;;;;;5010746;28;20029;-77
2023/10/13 13:18:40;;;;;;;6.47;2.60;;;28.30;75.40;;;;;;5011035;28;20041;-82
2023/10/13 13:21:11;;;;;;;10.48;2.75;;;28.40;73.70;;;;;;5011666;28;20030;-77
2023/10/13 13:23:39;;;;;;;12.88;2.47;;;28.40;74.20;;;;;;5009659;28;20122;-77
2023/10/13 13:26:15;;;;;;;11.18;2.60;;;28.30;73.90;;;;;;5009507;28;20163;-77
2023/10/13 13:28:44;;;;;;;12.68;2.53;;;28.20;74.40;;;;;;5011450;28;20067;-79
2023/10/13 13:31:12;;;;;;;11.88;2.78;;;28.10;75.00;;;;;;5013070;28;20026;-76
2023/10/13 13:33:42;;;;;;;10.75;2.88;;;28.10;73.90;;;;;;5009832;28;20036;-76
2023/10/13 13:36:13;;;;;;;9.57;2.65;;;28.00;76.00;;;;;;5014579;28;20030;-77
2023/10/13 13:38:40;;;;;;;8.60;2.60;;;28.00;76.50;;;;;;5014405;28;20033;-79
2023/10/13 13:41:16;;;;;;;12.05;2.70;;;27.90;77.30;;;;;;5016013;28;20037;-83
2023/10/13 13:46:18;;;;;;;10.30;3.20;;;27.90;75.10;;;;;;5009809;28;20108;-76
2023/10/13 13:48:47;;;;;;;8.70;2.72;;;27.80;76.10;;;;;;5012522;28;20033;-76
2023/10/13 13:51:19;;;;;;;12.02;2.70;;;27.80;75.90;;;;;;5010579;28;20152;-76
2023/10/13 13:53:45;;;;;;;6.82;2.38;;;27.80;76.90;;;;;;5010862;28;20031;-76
2023/10/13 13:56:18;;;;;;;13.32;3.03;;;27.80;77.70;;;;;;5010318;28;20064;-75
2023/10/13 13:58:51;;;;;;;11.50;2.92;;;27.70;78.10;;;;;;5011765;28;20034;-76
2023/10/13 14:01:21;;;;;;;9.93;2.42;;;27.70;77.30;;;;;;5008850;28;20026;-77
2023/10/13 14:03:50;;;;;;;8.80;2.60;;;27.70;75.10;;;;;;5015829;28;20180;-77
2023/10/13 14:06:26;;;;;;;10.25;2.60;;;27.80;73.20;;;;;;5012939;28;20034;-78
2023/10/13 14:08:57;;;;;;;10.80;3.40;;;27.70;75.10;;;;;;5015832;28;20568;-78
2023/10/13 14:16:53;;;;;;;12.88;2.90;;;27.40;75.90;;;;;;5012789;28;20080;-75
2023/10/13 14:19:26;;;;;;;13.82;2.53;;;27.30;74.50;;;;;;5012703;28;20033;-74
2023/10/13 14:21:55;;;;;;;12.23;2.88;;;27.30;73.70;;;;;;5012427;28;20089;-75
2023/10/13 14:24:27;;;;;;;12.52;2.45;;;27.20;75.60;;;;;;5011018;28;20155;-76
2023/10/13 14:26:56;;;;;;;12.10;2.47;;;27.10;77.10;;;;;;5012837;28;20491;-75
2023/10/13 14:29:26;;;;;;;13.75;3.00;;;27.10;77.20;;;;;;5015466;28;20041;-79
2023/10/13 14:31:52;;;;;;;9.10;2.70;;;26.90;78.70;;;;;;5013755;28;20041;-78
2023/10/13 14:34:17;;;;;;;13.30;3.85;;;26.90;76.40;;;;;;5014104;28;20028;-77
2023/10/13 14:36:48;;;;;;;9.90;2.88;;;26.90;78.70;;;;;;5012256;28;20457;-76
2023/10/13 14:39:14;;;;;;;12.90;3.05;;;26.80;79.00;;;;;;5016963;28;20665;-77
2023/10/13 14:41:40;;;;;;;11.48;3.03;;;26.70;78.10;;;;;;5016652;28;20120;-75
2023/10/13 14:44:06;;;;;;;11.30;2.60;;;26.60;75.50;;;;;;5011792;28;20033;-82
2023/10/13 14:46:35;;;;;;;12.75;2.97;;;26.60;79.20;;;;;;5016801;28;20088;-76
2023/10/13 14:49:04;;;;;;;8.95;2.80;;;26.50;81.40;;;;;;5020459;28;20033;-78
2023/10/13 14:51:31;;;;;;;11.88;2.70;;;26.40;78.40;;;;;;5023530;28;20037;-78
2023/10/13 14:53:59;;;;;;;12.07;3.47;;;26.30;80.80;;;;;;5014662;28;20036;-82
2023/10/13 14:56:26;;;;;;;15.68;3.15;;;26.20;83.10;;;;;;5017841;28;20036;-81
2023/10/13 14:58:53;;;;;;;14.05;2.90;;;26.00;82.00;;;;;;5019110;28;20116;-80
2023/10/13 15:01:21;;;;;;;12.05;2.63;;;26.00;83.00;;;;;;5017756;28;20202;-80
2023/10/13 15:03:48;;;;;;;12.70;3.78;;;25.90;80.30;;;;;;5018634;28;20055;-80
2023/10/13 15:06:18;;;;;;;11.98;2.85;;;25.80;81.30;;;;;;5018490;28;20148;-79
2023/10/13 15:08:48;;;;;;;10.52;3.33;;;25.70;83.30;;;;;;5016463;28;20029;-80
2023/10/13 15:11:14;;;;;;;13.70;5.28;;;25.60;85.50;;;;;;5013858;28;20040;-78
2023/10/13 15:13:42;;;;;;;16.38;3.35;;;25.50;87.60;;;;;;5012381;28;20033;-80
2023/10/13 15:16:18;;;;;;;9.77;2.80;;;25.30;87.10;;;;;;5013438;28;20041;-79
2023/10/13 15:18:46;;;;;;;17.27;3.65;;;25.20;87.20;;;;;;5012679;28;20030;-80
2023/10/13 15:21:19;;;;;;;14.85;3.53;;;25.10;88.10;;;;;;5011330;28;20036;-79
2023/10/13 15:23:44;;;;;;;12.80;4.97;;;25.00;87.20;;;;;;5013903;28;20060;-80
2023/10/13 15:26:13;;;;;;;11.95;4.30;;;24.90;89.20;;;;;;5013038;28;20029;-79
2023/10/13 15:28:48;;;;;;;14.45;4.30;;;24.70;89.20;;;;;;5010471;28;20034;-80
2023/10/13 15:34:14;;;;;;;13.90;3.45;;;24.40;90.30;;;;;;4976153;28;20053;-80
2023/10/13 15:36:44;;;;;;;10.13;3.28;;;24.20;91.10;;;;;;5016668;28;20093;-82
2023/10/13 15:39:11;;;;;;;12.95;3.08;;;24.10;91.70;;;;;;5019110;28;20026;-81
2023/10/13 15:41:38;;;;;;;9.35;2.90;;;23.90;91.00;;;;;;5019248;28;20135;-81
2023/10/13 15:44:09;;;;;;;14.88;6.75;;;23.70;91.60;;;;;;5016534;28;20040;-80
2023/10/13 15:46:35;;;;;;;15.52;5.43;;;23.60;91.90;;;;;;5016682;28;20025;-80
2023/10/13 15:49:03;;;;;;;15.10;7.15;;;23.40;92.50;;;;;;5018594;28;20021;-80
2023/10/13 15:51:29;;;;;;;9.95;4.35;;;23.30;92.70;;;;;;5016559;28;20514;-80
2023/10/13 15:53:56;;;;;;;10.23;3.38;;;23.10;93.30;;;;;;5015841;28;20833;-80
2023/10/13 15:56:21;;;;;;;16.17;4.57;;;23.00;93.60;;;;;;5016473;28;20029;-81
2023/10/13 15:58:49;;;;;;;12.63;4.03;;;22.80;94.10;;;;;;5016283;28;20060;-81
2023/10/13 16:01:15;;;;;;;14.23;3.65;;;22.70;94.50;;;;;;5014249;28;20673;-81
2023/10/13 16:03:49;;;;;;;23.20;3.45;;;22.60;94.60;;;;;;5012437;28;20109;-80
2023/10/13 16:06:15;;;;;;;14.27;4.38;;;22.40;95.60;;;;;;5013174;28;20148;-81
2023/10/13 16:08:42;;;;;;;17.38;4.05;;;22.20;96.30;;;;;;5014456;28;20029;-81
2023/10/13 16:11:19;;;;;;;14.70;3.75;;;22.10;97.00;;;;;;5016897;28;20035;-80
2023/10/13 16:13:45;;;;;;;12.43;3.97;;;22.00;98.20;;;;;;5015810;28;20037;-81
2023/10/13 16:16:18;;;;;;;13.13;4.18;;;21.80;98.50;;;;;;5015801;28;20033;-81
2023/10/13 16:18:47;;;;;;;14.75;3.78;;;21.60;99.00;;;;;;5016306;28;20145;-80
2023/10/13 16:21:14;;;;;;;21.58;3.78;;;21.50;99.80;;;;;;5018360;28;20120;-79